Time;durP1;ratioP1;P1;durP2;ratioP2;P2;SDS_P1;SDS_P2;PMS_P1;PMS_P2;Temp;Humidity;BMP_temperature;BMP_pressure;BME280_temperature;BME280_humidity;BME280_pressure;Samples;Min_cycle;Max_cycle;Signal;HPM_P1;HPM_P2
2022/10/21 00:00:37;;;;;;;4.00;1.60;;;;;;;-0.09;79.70;99831.59;102000;1301;61164;-25
2022/10/21 00:03:04;;;;;;;2.20;1.60;;;;;;;-0.35;80.13;99829.98;102294;1302;62774;-25
2022/10/21 00:05:31;;;;;;;3.40;2.00;;;;;;;-0.62;81.37;99831.63;102343;1302;75512;-25
2022/10/21 00:07:58;;;;;;;4.00;2.30;;;;;;;-0.84;82.39;99829.73;102322;1296;75787;-25
2022/10/21 00:10:25;;;;;;;3.20;1.40;;;;;;;-1.01;83.34;99832.30;102324;1294;75204;-24
2022/10/21 00:12:52;;;;;;;2.50;1.40;;;;;;;-0.58;83.74;99831.36;102180;1294;62035;-25
2022/10/21 00:15:19;;;;;;;3.60;1.60;;;;;;;0.03;82.17;99833.16;102169;1302;61742;-25
2022/10/21 00:17:46;;;;;;;3.70;2.00;;;;;;;0.16;81.54;99832.99;102377;1299;75982;-25
2022/10/21 00:20:13;;;;;;;4.40;1.90;;;;;;;0.03;81.43;99826.66;102335;1299;75841;-25
2022/10/21 00:22:40;;;;;;;5.10;1.60;;;;;;;-0.15;81.92;99824.38;102315;1295;75080;-25
2022/10/21 00:25:07;;;;;;;3.60;1.90;;;;;;;-0.37;82.13;99821.33;102313;1299;61158;-25
2022/10/21 00:27:34;;;;;;;3.60;1.90;;;;;;;-0.59;82.25;99816.04;102308;1302;62891;-26
2022/10/21 00:30:03;;;;;;;2.20;1.30;;;;;;;-0.78;83.42;99811.88;102413;1299;76375;-25
2022/10/21 00:32:30;;;;;;;3.10;1.60;;;;;;;-0.34;83.02;99815.98;102085;1299;75438;-25
2022/10/21 00:34:57;;;;;;;4.10;2.20;;;;;;;0.29;81.50;99817.63;102288;1294;73365;-25
2022/10/21 00:37:25;;;;;;;3.10;1.80;;;;;;;0.42;80.33;99813.87;102319;1299;61904;-25
2022/10/21 00:39:52;;;;;;;4.50;1.80;;;;;;;0.26;79.64;99812.23;102303;1299;61505;-25
2022/10/21 00:42:20;;;;;;;3.10;1.60;;;;;;;0.01;79.80;99808.28;102163;1299;76492;-25
2022/10/21 00:45:21;;;;;;;3.40;1.60;;;;;;;-0.26;79.87;99806.55;102252;1300;76112;-25
2022/10/21 00:47:53;;;;;;;4.30;1.50;;;;;;;-0.57;80.49;99802.17;101956;1299;74323;-25
2022/10/21 00:50:31;;;;;;;4.20;1.90;;;;;;;-0.82;81.11;99803.77;102177;1302;61206;-25
2022/10/21 00:52:59;;;;;;;1.00;0.90;;;;;;;-1.01;81.73;99802.30;102351;1291;62586;-25
2022/10/21 00:55:27;;;;;;;3.40;1.90;;;;;;;-0.51;81.53;99807.15;102356;1300;76386;-25
2022/10/21 00:57:54;;;;;;;2.60;1.70;;;;;;;0.12;79.94;99811.42;102098;1295;76813;-25
2022/10/21 01:00:21;;;;;;;2.30;1.50;;;;;;;0.13;79.36;99811.73;102292;1299;74101;-25
2022/10/21 01:02:48;;;;;;;5.30;1.80;;;;;;;-0.07;79.87;99811.90;102262;1298;62036;-25
2022/10/21 01:05:15;;;;;;;2.70;1.30;;;;;;;-0.30;80.56;99811.42;102243;1302;62818;-25
2022/10/21 01:07:45;;;;;;;3.60;1.70;;;;;;;-0.54;81.35;99809.79;102116;1301;76082;-25
2022/10/21 01:10:13;;;;;;;2.50;1.80;;;;;;;-0.76;82.07;99810.46;101954;1302;76777;-25
2022/10/21 01:12:52;;;;;;;5.50;1.90;;;;;;;-0.95;82.71;99812.94;102145;1297;75195;-25
2022/10/21 01:15:22;;;;;;;2.20;1.00;;;;;;;-1.12;82.90;99818.23;102184;1293;63655;-25
2022/10/21 01:18:08;;;;;;;1.80;1.40;;;;;;;-0.64;82.63;99819.54;102230;1298;61844;-25
2022/10/21 01:20:44;;;;;;;4.00;2.10;;;;;;;-0.00;80.89;99815.98;102175;1298;74340;-25
2022/10/21 01:23:22;;;;;;;4.60;2.10;;;;;;;0.02;80.33;99819.88;102117;1294;75719;-25
2022/10/21 01:26:23;;;;;;;4.00;2.00;;;;;;;-0.19;80.26;99819.89;102090;1300;75317;-25
2022/10/21 01:28:59;;;;;;;2.70;1.30;;;;;;;-0.47;81.20;99823.62;102009;1302;61936;-25
2022/10/21 01:31:32;;;;;;;2.60;1.80;;;;;;;-0.68;82.01;99817.95;102197;1299;61520;-25
2022/10/21 01:34:13;;;;;;;4.70;1.90;;;;;;;-0.88;81.79;99818.39;101961;1298;75673;-25
2022/10/21 01:36:45;;;;;;;5.80;1.10;;;;;;;-1.05;82.59;99819.43;101987;1299;74754;-25
2022/10/21 01:39:24;;;;;;;2.60;1.60;;;;;;;-0.53;82.31;99816.58;102004;1303;74164;-25
2022/10/21 01:41:54;;;;;;;2.00;1.50;;;;;;;0.11;80.43;99816.73;101973;1302;63167;-25
2022/10/21 01:44:25;;;;;;;3.60;1.60;;;;;;;0.18;79.73;99811.27;101919;1299;62487;-25
2022/10/21 01:47:00;;;;;;;1.90;1.30;;;;;;;-0.02;79.38;99811.44;101945;1299;75355;-25
2022/10/21 01:49:31;;;;;;;2.80;1.40;;;;;;;-0.29;79.81;99810.73;101900;1301;75120;-25
2022/10/21 01:51:59;;;;;;;4.20;1.80;;;;;;;-0.56;80.14;99806.77;102122;1299;75019;-25
2022/10/21 01:54:27;;;;;;;4.80;1.40;;;;;;;-0.81;80.33;99808.86;102106;1302;61204;-25
2022/10/21 01:56:55;;;;;;;2.90;1.80;;;;;;;-1.01;80.32;99806.41;101924;1303;61184;-25
2022/10/21 01:59:22;;;;;;;1.80;1.20;;;;;;;-1.18;80.66;99806.42;101967;1299;76381;-25
2022/10/21 02:01:49;;;;;;;1.60;1.10;;;;;;;-0.74;81.78;99806.98;101926;1301;74688;-25
2022/10/21 02:04:16;;;;;;;2.90;1.80;;;;;;;-0.02;80.49;99812.63;101947;1302;75190;-25
2022/10/21 02:06:43;;;;;;;3.20;1.90;;;;;;;0.15;79.84;99816.29;102274;1299;61525;-25
2022/10/21 02:09:10;;;;;;;3.30;1.70;;;;;;;0.01;79.80;99818.86;101942;1294;61087;-25
2022/10/21 02:11:37;;;;;;;1.50;1.10;;;;;;;-0.25;79.78;99814.89;102262;1302;74964;-25
2022/10/21 02:14:16;;;;;;;1.90;1.50;;;;;;;-0.57;79.53;99811.23;102115;1299;76474;-25
2022/10/21 02:16:43;;;;;;;5.40;2.10;;;;;;;-0.85;80.35;99804.67;101972;1302;75202;-25
2022/10/21 02:19:15;;;;;;;2.10;1.40;;;;;;;-1.04;80.50;99797.26;102137;1302;61523;-25
2022/10/21 02:21:42;;;;;;;2.60;1.30;;;;;;;-1.20;82.41;99794.86;101941;1294;61220;-24
2022/10/21 02:24:14;;;;;;;2.50;1.50;;;;;;;-0.70;82.75;99800.42;101932;1299;76390;-24
2022/10/21 02:26:41;;;;;;;5.00;2.10;;;;;;;0.02;81.32;99799.20;101931;1292;75833;-25
2022/10/21 02:29:08;;;;;;;3.20;1.50;;;;;;;0.11;79.70;99803.92;101930;1301;74975;-25
2022/10/21 02:31:41;;;;;;;2.60;1.50;;;;;;;-0.07;79.60;99801.84;102157;1302;61896;-25
2022/10/21 02:34:46;;;;;;;3.10;1.60;;;;;;;-0.32;79.88;99806.19;102303;1305;62812;-24
2022/10/21 02:37:16;;;;;;;2.30;1.50;;;;;;;-0.66;80.22;99801.36;102310;1299;76657;-25
2022/10/21 02:39:51;;;;;;;3.90;1.90;;;;;;;-0.90;80.84;99800.36;102044;1301;76650;-24
2022/10/21 02:42:22;;;;;;;4.10;2.10;;;;;;;-1.11;80.91;99800.13;102012;1305;73921;-25
2022/10/21 02:44:49;;;;;;;1.70;1.00;;;;;;;-1.24;81.17;99800.58;102064;1298;62626;-25
2022/10/21 02:47:16;;;;;;;2.40;1.40;;;;;;;-0.71;81.23;99807.11;102038;1298;61565;-25
2022/10/21 02:49:43;;;;;;;4.00;1.90;;;;;;;0.02;80.31;99809.78;102266;1298;76323;-25
2022/10/21 02:52:11;;;;;;;3.80;1.80;;;;;;;0.18;79.45;99806.48;102263;1297;76069;-25
2022/10/21 02:54:38;;;;;;;4.00;1.70;;;;;;;-0.00;79.27;99807.29;101935;1299;74177;-25
2022/10/21 02:57:05;;;;;;;5.30;1.60;;;;;;;-0.25;79.65;99817.29;102289;1298;61152;-25
2022/10/21 02:59:32;;;;;;;2.50;1.80;;;;;;;-0.51;80.16;99816.54;102071;1295;62265;-25
2022/10/21 03:01:59;;;;;;;4.40;2.40;;;;;;;-0.76;80.42;99811.64;102025;1302;76347;-25
2022/10/21 03:04:26;;;;;;;2.60;1.80;;;;;;;-0.98;81.00;99810.59;102077;1302;76729;-25
2022/10/21 03:06:53;;;;;;;1.10;0.70;;;;;;;-1.13;81.04;99808.36;102234;1300;75265;-25
2022/10/21 03:09:20;;;;;;;3.10;1.30;;;;;;;-0.69;80.87;99812.70;102270;1299;62416;-25
2022/10/21 03:11:47;;;;;;;2.80;1.40;;;;;;;-0.04;79.75;99806.34;102250;1299;63020;-25
2022/10/21 03:14:14;;;;;;;2.20;1.30;;;;;;;0.07;78.00;99804.20;102177;1298;75363;-25
2022/10/21 03:16:41;;;;;;;5.90;1.70;;;;;;;-0.20;77.27;99805.39;101904;1302;76730;-25
2022/10/21 03:19:09;;;;;;;2.80;1.70;;;;;;;-0.55;77.62;99808.45;102183;1297;75180;-25
2022/10/21 03:21:36;;;;;;;2.30;1.60;;;;;;;-0.90;78.30;99811.77;101907;1295;62195;-25
2022/10/21 03:24:03;;;;;;;3.30;2.20;;;;;;;-1.21;78.73;99803.58;102245;1291;61540;-25
2022/10/21 03:26:45;;;;;;;3.10;1.90;;;;;;;-1.49;79.15;99791.55;102298;1299;76814;-25
2022/10/21 03:29:12;;;;;;;3.10;1.10;;;;;;;-1.71;79.75;99788.38;101933;1295;75847;-24
2022/10/21 03:31:39;;;;;;;3.50;1.70;;;;;;;-1.32;79.81;99788.98;102160;1299;74076;-25
2022/10/21 03:34:06;;;;;;;2.10;1.70;;;;;;;-0.63;79.11;99791.90;102159;1294;62908;-25
2022/10/21 03:36:33;;;;;;;4.80;2.10;;;;;;;-0.49;78.06;99788.52;101951;1291;61969;-25
2022/10/21 03:39:00;;;;;;;3.60;2.30;;;;;;;-0.65;78.26;99786.51;102188;1299;76299;-25
2022/10/21 03:41:27;;;;;;;4.00;2.10;;;;;;;-0.92;78.37;99783.88;102052;1301;76531;-25
2022/10/21 03:43:54;;;;;;;2.70;2.20;;;;;;;-1.19;78.53;99786.16;102306;1296;75556;-25
2022/10/21 03:46:21;;;;;;;3.00;2.10;;;;;;;-1.46;78.67;99777.00;102344;1298;61791;-25
2022/10/21 03:48:48;;;;;;;3.90;2.20;;;;;;;-1.71;79.27;99777.83;101962;1301;62975;-25
2022/10/21 03:51:15;;;;;;;3.40;2.30;;;;;;;-1.95;79.33;99781.02;102202;1299;76354;-25
2022/10/21 03:53:42;;;;;;;1.90;1.50;;;;;;;-2.13;79.76;99778.27;102151;1294;75545;-25
2022/10/21 03:56:10;;;;;;;2.70;2.00;;;;;;;-1.70;80.05;99772.16;102232;1299;75286;-25
2022/10/21 03:58:38;;;;;;;4.10;2.10;;;;;;;-0.96;79.01;99773.73;101993;1307;62015;-25
2022/10/21 04:01:05;;;;;;;6.40;2.00;;;;;;;-0.81;77.71;99777.98;101995;1302;62893;-25
2022/10/21 04:03:32;;;;;;;3.50;1.80;;;;;;;-1.00;77.42;99780.31;102207;1299;76417;-25
2022/10/21 04:05:59;;;;;;;1.40;1.10;;;;;;;-1.29;77.85;99777.35;102128;1299;76492;-25
2022/10/21 04:08:26;;;;;;;4.00;2.20;;;;;;;-1.56;78.65;99777.73;102167;1298;74088;-25
2022/10/21 04:10:56;;;;;;;2.40;1.60;;;;;;;-1.79;79.63;99777.31;102276;1291;62029;-25
2022/10/21 04:13:23;;;;;;;2.40;1.50;;;;;;;-2.03;80.74;99768.05;102066;1294;61553;-25
2022/10/21 04:15:50;;;;;;;1.50;1.10;;;;;;;-2.18;80.98;99764.73;102103;1299;76175;-25
2022/10/21 04:18:17;;;;;;;1.80;1.10;;;;;;;-1.76;80.87;99760.56;101978;1300;76423;-24
2022/10/21 04:20:44;;;;;;;4.20;1.90;;;;;;;-1.08;79.28;99753.39;102128;1302;75223;-25
2022/10/21 04:23:11;;;;;;;2.70;1.90;;;;;;;-0.95;78.23;99754.46;101897;1302;61795;-25
2022/10/21 04:25:38;;;;;;;4.60;1.70;;;;;;;-1.14;77.56;99752.48;101993;1302;62848;-25
2022/10/21 04:28:05;;;;;;;3.20;1.70;;;;;;;-1.44;77.88;99745.79;102332;1302;76131;-25
2022/10/21 04:30:32;;;;;;;2.60;1.60;;;;;;;-1.72;78.57;99746.16;102301;1299;75689;-25
2022/10/21 04:32:59;;;;;;;3.40;1.80;;;;;;;-1.97;79.07;99744.45;102326;1299;74118;-25
2022/10/21 04:35:26;;;;;;;3.10;2.60;;;;;;;-2.20;79.76;99738.23;102136;1302;61151;-25
2022/10/21 04:37:53;;;;;;;2.50;1.60;;;;;;;-2.39;80.00;99737.71;102185;1299;62587;-25
2022/10/21 04:40:21;;;;;;;2.60;1.80;;;;;;;-2.00;80.22;99745.19;102171;1298;74979;-25
2022/10/21 04:42:48;;;;;;;5.30;3.00;;;;;;;-1.29;78.94;99745.65;102233;1291;76778;-25
2022/10/21 04:45:16;;;;;;;8.60;3.40;;;;;;;-1.11;78.29;99745.77;101267;1301;1084488;-25
2022/10/21 04:47:43;;;;;;;3.60;2.70;;;;;;;-1.26;77.91;99741.50;102026;1300;62095;-25
2022/10/21 04:50:10;;;;;;;4.30;2.70;;;;;;;-1.52;78.24;99738.98;102152;1299;61784;-25
2022/10/21 04:52:37;;;;;;;6.90;3.10;;;;;;;-1.76;78.57;99739.29;102192;1299;76874;-25
2022/10/21 04:55:06;;;;;;;6.80;3.20;;;;;;;-1.99;79.16;99752.16;102164;1299;76576;-25
2022/10/21 04:57:33;;;;;;;5.20;2.60;;;;;;;-2.17;79.97;99755.88;101966;1301;75128;-25
2022/10/21 05:00:00;;;;;;;2.30;1.60;;;;;;;-2.31;80.42;99762.59;102172;1294;61809;-25
2022/10/21 05:02:28;;;;;;;5.00;2.10;;;;;;;-1.90;80.32;99762.36;102256;1291;61759;-25
2022/10/21 05:04:55;;;;;;;6.50;2.30;;;;;;;-1.15;79.16;99764.25;102301;1299;76423;-25
2022/10/21 05:07:22;;;;;;;4.90;2.10;;;;;;;-0.92;78.44;99764.63;102202;1302;76769;-25
2022/10/21 05:09:49;;;;;;;7.00;1.70;;;;;;;-0.98;78.35;99767.33;102091;1294;75030;-25
2022/10/21 05:12:16;;;;;;;4.50;2.00;;;;;;;-1.13;78.86;99766.27;102235;1298;61169;-25
2022/10/21 05:14:43;;;;;;;3.50;1.90;;;;;;;-1.31;78.81;99762.91;102157;1299;63290;-25
2022/10/21 05:17:10;;;;;;;5.00;2.20;;;;;;;-1.50;79.54;99768.91;102251;1299;75117;-25
2022/10/21 05:19:37;;;;;;;3.70;2.40;;;;;;;-1.65;79.71;99773.98;102290;1299;77009;-24
2022/10/21 05:22:04;;;;;;;3.60;2.20;;;;;;;-1.78;80.06;99778.14;102063;1302;74089;-25
2022/10/21 05:24:31;;;;;;;5.20;1.10;;;;;;;-1.86;80.54;99777.45;102206;1302;61344;-24
2022/10/21 05:26:58;;;;;;;4.80;1.80;;;;;;;-1.34;80.87;99778.46;101991;1299;61709;-25
2022/10/21 05:29:25;;;;;;;5.50;3.00;;;;;;;-0.53;79.40;99788.95;102221;1294;75488;-25
2022/10/21 05:31:52;;;;;;;8.70;5.70;;;;;;;-0.29;78.35;99794.01;102017;1294;75810;-25
2022/10/21 05:34:19;;;;;;;4.00;2.70;;;;;;;-0.38;78.08;99796.61;102142;1301;75175;-25
2022/10/21 08:11:30;;;;;;;14.60;7.20;;;;;;;8.02;65.97;99818.82;99673;1323;617350;-23
2022/10/21 08:13:58;;;;;;;13.80;6.50;;;;;;;8.29;64.78;99820.19;101333;1312;61145;-24
2022/10/21 08:16:25;;;;;;;9.70;5.40;;;;;;;8.54;64.11;99815.27;102190;1301;61727;-24
2022/10/21 08:18:52;;;;;;;8.30;3.90;;;;;;;8.80;62.52;99812.83;102217;1302;73562;-24
2022/10/21 08:21:20;;;;;;;6.70;3.70;;;;;;;8.87;60.15;99804.59;102195;1301;75788;-24
2022/10/21 08:23:47;;;;;;;4.40;2.60;;;;;;;8.96;59.87;99799.72;101150;1302;1309400;-25
2022/10/21 08:26:15;;;;;;;6.70;3.30;;;;;;;9.10;59.18;99799.05;102172;1302;61905;-24
2022/10/21 08:28:44;;;;;;;5.70;3.50;;;;;;;9.23;57.53;99787.61;102346;1297;62020;-24
2022/10/21 08:31:13;;;;;;;6.90;2.10;;;;;;;9.27;57.64;99779.08;102380;1286;73349;-24
2022/10/21 08:33:44;;;;;;;5.90;2.50;;;;;;;9.36;57.95;99776.23;101961;1300;75582;-24
2022/10/21 08:36:17;;;;;;;4.80;2.40;;;;;;;9.74;57.46;99767.54;102314;1298;74593;-24
2022/10/21 08:38:44;;;;;;;2.90;1.70;;;;;;;10.00;55.41;99771.70;102344;1300;61731;-25
2022/10/21 08:41:29;;;;;;;3.10;1.30;;;;;;;10.23;54.93;99769.78;102351;1302;61855;-24
2022/10/21 08:44:22;;;;;;;2.70;1.30;;;;;;;10.45;53.81;99768.52;102203;1299;73213;-24
2022/10/21 08:46:53;;;;;;;4.40;1.00;;;;;;;10.73;52.76;99770.09;102196;1302;75799;-25
2022/10/21 08:49:26;;;;;;;3.20;1.50;;;;;;;10.87;52.83;99771.00;102026;1305;73482;-24
2022/10/21 08:52:02;;;;;;;2.20;1.30;;;;;;;10.94;51.47;99767.90;102196;1301;61673;-25
2022/10/21 08:54:38;;;;;;;2.20;1.00;;;;;;;10.98;50.88;99764.30;102148;1305;61945;-24
2022/10/21 08:57:08;;;;;;;1.80;1.50;;;;;;;11.16;50.46;99765.94;102025;1293;74947;-24
2022/10/21 08:59:35;;;;;;;5.80;0.90;;;;;;;11.46;50.26;99763.95;102039;1304;75755;-25
2022/10/21 09:02:17;;;;;;;3.20;1.00;;;;;;;11.64;49.36;99764.03;101919;1303;74051;-24
2022/10/21 09:05:03;;;;;;;2.50;1.00;;;;;;;11.78;48.38;99766.15;102112;1302;61833;-24
2022/10/21 09:07:39;;;;;;;1.60;0.90;;;;;;;11.93;47.95;99761.55;102380;1295;61697;-25
2022/10/21 09:10:23;;;;;;;2.30;0.90;;;;;;;11.96;47.37;99757.80;102274;1294;74424;-24
2022/10/21 09:13:48;;;;;;;2.30;1.10;;;;;;;11.99;47.68;99761.48;101929;1299;75561;-24
2022/10/21 09:16:25;;;;;;;1.90;1.00;;;;;;;12.09;47.92;99761.73;101614;1299;73214;-24
2022/10/21 09:19:15;;;;;;;5.80;1.20;;;;;;;11.81;47.79;99763.98;102051;1300;61957;-25
2022/10/21 09:22:10;;;;;;;1.90;1.00;;;;;;;12.26;47.64;99749.30;102180;1301;62037;-25
2022/10/21 09:24:59;;;;;;;3.10;1.00;;;;;;;12.50;45.38;99738.27;102131;1301;74615;-24
2022/10/21 09:27:26;;;;;;;1.30;0.70;;;;;;;12.40;45.52;99735.86;101890;1302;75033;-24
2022/10/21 09:30:20;;;;;;;0.90;0.70;;;;;;;12.73;45.63;99737.48;101967;1302;74257;-25
2022/10/21 09:32:49;;;;;;;4.70;0.70;;;;;;;12.93;44.88;99736.81;101976;1300;61927;-24
2022/10/21 09:35:21;;;;;;;2.20;0.90;;;;;;;12.91;44.39;99736.90;101922;1302;61817;-24
2022/10/21 09:37:52;;;;;;;1.90;1.00;;;;;;;12.98;44.23;99727.66;102053;1298;73603;-24
2022/10/21 09:40:24;;;;;;;1.20;1.00;;;;;;;13.23;44.05;99717.97;101898;1305;75701;-25
2022/10/21 09:42:57;;;;;;;2.80;0.70;;;;;;;12.96;43.61;99714.77;101903;1305;74066;-24
2022/10/21 09:45:39;;;;;;;2.70;0.90;;;;;;;12.34;44.48;99709.85;102013;1296;61191;-25
2022/10/21 09:48:16;;;;;;;1.10;0.60;;;;;;;11.91;45.65;99715.05;101925;1296;61924;-24
2022/10/21 09:50:58;;;;;;;6.10;1.00;;;;;;;11.57;47.17;99724.40;101934;1302;74333;-24
2022/10/21 09:53:28;;;;;;;1.90;0.70;;;;;;;11.98;46.77;99726.23;101897;1305;75799;-25
2022/10/21 09:56:10;;;;;;;1.80;1.00;;;;;;;12.27;45.21;99724.31;101894;1302;74057;-24
2022/10/21 09:58:36;;;;;;;2.20;0.80;;;;;;;11.95;46.26;99718.94;101973;1297;62039;-24
2022/10/21 10:01:04;;;;;;;0.60;0.60;;;;;;;11.91;46.88;99710.56;102111;1300;61989;-24
2022/10/21 10:03:50;;;;;;;1.70;1.10;;;;;;;11.59;45.92;99709.09;101907;1302;74570;-24
2022/10/21 10:06:35;;;;;;;2.20;0.90;;;;;;;11.55;47.16;99703.84;101983;1297;74713;-24
2022/10/21 10:09:05;;;;;;;2.70;1.00;;;;;;;12.14;46.52;99695.73;101944;1301;74302;-24
2022/10/21 10:11:33;;;;;;;2.00;0.60;;;;;;;12.35;44.52;99687.17;101981;1305;61993;-24
2022/10/21 10:14:43;;;;;;;3.80;0.80;;;;;;;12.42;44.82;99687.30;102170;1301;61686;-24
2022/10/21 10:17:36;;;;;;;2.40;0.90;;;;;;;12.46;44.56;99677.27;101905;1305;74591;-26
2022/10/21 10:20:02;;;;;;;2.50;0.70;;;;;;;12.74;43.75;99669.61;101982;1305;75889;-24
2022/10/21 10:22:30;;;;;;;1.00;0.80;;;;;;;12.83;43.19;99668.58;102039;1294;74468;-24
2022/10/21 10:25:10;;;;;;;1.80;0.60;;;;;;;12.61;43.75;99672.89;102038;1301;61145;-24
2022/10/21 10:27:52;;;;;;;0.80;0.70;;;;;;;12.34;43.01;99678.02;101976;1304;61102;-24
2022/10/21 10:30:21;;;;;;;1.50;0.80;;;;;;;12.34;43.70;99674.20;102033;1301;74291;-24
2022/10/21 10:32:49;;;;;;;1.00;0.80;;;;;;;12.50;43.75;99664.05;101884;1305;75616;-24
2022/10/21 10:35:33;;;;;;;1.30;0.70;;;;;;;12.72;44.12;99662.80;101939;1296;74232;-24
2022/10/21 10:38:01;;;;;;;2.10;0.80;;;;;;;12.54;43.04;99664.25;101897;1301;61934;-24
2022/10/21 10:40:32;;;;;;;0.90;0.50;;;;;;;12.51;45.12;99665.73;101888;1308;61856;-24
2022/10/21 10:43:04;;;;;;;2.40;0.80;;;;;;;12.55;43.03;99662.77;101898;1301;74517;-24
2022/10/21 10:45:32;;;;;;;1.90;0.70;;;;;;;12.69;42.62;99659.45;101926;1297;75776;-24
2022/10/21 10:48:02;;;;;;;1.10;0.70;;;;;;;12.89;42.98;99662.52;102189;1294;74082;-24
2022/10/21 10:50:36;;;;;;;1.80;1.00;;;;;;;12.64;43.60;99663.60;101859;1306;61162;-24
2022/10/21 10:53:16;;;;;;;;;;;;;;;12.60;42.32;99659.21;102025;1288;61924;-24
2022/10/21 10:55:43;;;;;;;2.50;0.60;;;;;;;12.31;42.94;99658.61;101967;1298;72579;-24
2022/10/21 10:58:10;;;;;;;2.60;0.80;;;;;;;12.45;42.39;99653.29;102112;1301;75786;-25
2022/10/21 11:00:43;;;;;;;2.40;1.00;;;;;;;12.03;43.55;99647.85;102034;1302;74397;-24
2022/10/21 11:03:14;;;;;;;1.40;0.80;;;;;;;12.30;43.20;99646.48;101898;1305;61280;-25
2022/10/21 11:05:43;;;;;;;2.40;0.80;;;;;;;12.25;42.18;99643.70;102110;1299;61137;-24
2022/10/21 11:08:15;;;;;;;2.50;0.90;;;;;;;11.86;43.77;99643.24;102213;1299;74582;-25
2022/10/21 11:10:48;;;;;;;1.20;0.70;;;;;;;12.07;43.61;99644.75;102171;1294;75899;-24
2022/10/21 11:13:23;;;;;;;2.50;1.20;;;;;;;11.97;43.46;99641.52;102235;1291;74179;-24
2022/10/21 11:16:11;;;;;;;5.00;1.10;;;;;;;11.98;44.19;99635.88;102152;1296;61171;-24
2022/10/21 11:18:44;;;;;;;2.80;1.30;;;;;;;12.34;43.71;99634.50;102416;1299;61739;-24
2022/10/21 11:21:35;;;;;;;3.10;1.10;;;;;;;12.22;42.92;99629.70;102190;1299;74616;-24
2022/10/21 11:24:36;;;;;;;4.90;1.70;;;;;;;11.97;44.25;99631.44;102386;1302;75882;-24
2022/10/21 11:27:10;;;;;;;1.90;1.10;;;;;;;11.91;44.21;99628.70;102383;1298;73186;-24
2022/10/21 11:29:47;;;;;;;2.00;1.00;;;;;;;11.61;44.52;99623.37;102018;1299;61896;-24
2022/10/21 11:32:37;;;;;;;2.10;1.20;;;;;;;11.41;45.21;99620.37;102382;1298;61052;-24
2022/10/21 11:35:13;;;;;;;3.30;1.20;;;;;;;11.82;45.03;99611.70;102080;1302;73646;-24
2022/10/21 11:37:59;;;;;;;2.20;1.20;;;;;;;12.06;43.66;99600.63;102202;1295;74540;-25
2022/10/21 11:40:49;;;;;;;1.00;0.80;;;;;;;11.61;44.39;99592.27;102340;1294;74032;-24
2022/10/21 11:43:45;;;;;;;1.00;0.70;;;;;;;11.39;45.07;99596.91;102355;1294;61861;-24
2022/10/21 11:46:47;;;;;;;1.20;0.70;;;;;;;11.18;45.34;99593.10;102381;1299;61873;-24
2022/10/21 11:49:14;;;;;;;2.00;1.00;;;;;;;11.37;46.44;99602.26;102036;1299;74762;-23
2022/10/21 11:51:52;;;;;;;2.70;0.90;;;;;;;11.66;45.76;99605.12;102324;1299;75794;-24
2022/10/21 11:54:45;;;;;;;0.70;0.70;;;;;;;11.60;44.46;99601.93;102040;1302;74301;-24
2022/10/21 11:58:01;;;;;;;2.50;1.00;;;;;;;11.03;45.19;99598.87;102306;1299;61973;-24
2022/10/21 12:00:29;;;;;;;8.60;0.90;;;;;;;11.11;45.03;99601.04;102313;1291;61085;-24
2022/10/21 12:03:02;;;;;;;1.50;0.90;;;;;;;11.20;44.83;99592.25;102268;1300;74374;-23
2022/10/21 12:05:35;;;;;;;3.90;1.30;;;;;;;11.15;45.23;99595.61;102347;1293;74799;-24
2022/10/21 12:08:20;;;;;;;1.50;0.90;;;;;;;10.95;45.64;99598.45;102220;1299;73336;-24
2022/10/21 12:10:58;;;;;;;1.30;1.00;;;;;;;10.93;46.01;99597.02;102206;1299;61521;-24
2022/10/21 12:13:30;;;;;;;1.20;0.80;;;;;;;10.91;45.88;99593.04;102286;1296;61058;-24
2022/10/21 12:16:15;;;;;;;2.90;0.80;;;;;;;10.90;46.36;99589.81;102076;1295;74363;-24
2022/10/21 12:19:06;;;;;;;2.40;1.30;;;;;;;10.87;46.69;99582.48;102332;1297;76777;-24
2022/10/21 12:21:35;;;;;;;2.00;1.20;;;;;;;10.90;47.31;99572.73;102346;1293;74108;-24
2022/10/21 12:24:13;;;;;;;3.10;1.20;;;;;;;11.05;46.44;99567.63;102202;1301;61130;-24
2022/10/21 12:26:54;;;;;;;1.20;0.70;;;;;;;11.16;47.17;99565.26;102334;1302;62030;-24
2022/10/21 12:29:33;;;;;;;2.00;1.20;;;;;;;11.00;47.32;99560.00;102362;1291;74589;-24
2022/10/21 12:32:04;;;;;;;2.60;0.90;;;;;;;11.13;47.18;99552.80;102371;1302;75708;-24
2022/10/21 12:34:32;;;;;;;1.70;0.70;;;;;;;11.21;46.41;99550.81;102132;1294;73360;-24
2022/10/21 12:37:01;;;;;;;1.20;0.70;;;;;;;10.90;46.51;99540.45;102392;1299;62061;-24
2022/10/21 12:39:31;;;;;;;1.10;0.80;;;;;;;10.80;47.58;99544.30;102395;1292;61191;-23
2022/10/21 12:42:05;;;;;;;1.40;0.60;;;;;;;10.88;47.78;99552.07;102349;1297;75301;-24
2022/10/21 12:44:32;;;;;;;1.90;1.70;;;;;;;10.78;47.05;99547.22;102189;1299;75740;-24
2022/10/21 12:47:01;;;;;;;1.70;1.30;;;;;;;10.57;46.95;99542.00;102395;1291;73806;-24
2022/10/21 12:49:34;;;;;;;3.60;2.10;;;;;;;10.59;46.73;99527.94;102174;1299;61126;-24
2022/10/21 12:52:01;;;;;;;4.20;1.00;;;;;;;10.55;47.76;99529.78;102213;1296;61932;-24
2022/10/21 12:54:45;;;;;;;2.20;0.70;;;;;;;10.64;47.66;99522.92;102310;1291;75237;-23
2022/10/21 12:57:30;;;;;;;1.10;0.70;;;;;;;10.53;48.06;99521.79;102354;1294;75910;-24
2022/10/21 13:00:27;;;;;;;1.80;1.10;;;;;;;10.60;48.40;99523.56;102409;1297;74055;-24
2022/10/21 13:03:01;;;;;;;3.10;1.10;;;;;;;10.71;47.81;99525.36;102143;1302;61735;-24
2022/10/21 13:05:38;;;;;;;5.10;1.30;;;;;;;10.66;47.00;99519.42;102194;1300;62007;-24
2022/10/21 13:08:17;;;;;;;1.60;1.40;;;;;;;10.54;46.94;99521.53;102226;1295;75245;-24
2022/10/21 13:11:06;;;;;;;1.60;1.50;;;;;;;10.46;47.23;99525.64;102376;1297;75516;-24
2022/10/21 13:13:37;;;;;;;1.20;0.90;;;;;;;10.59;48.14;99514.11;102333;1299;74070;-24
2022/10/21 13:16:14;;;;;;;3.10;0.90;;;;;;;10.64;47.83;99518.24;102386;1289;61855;-24
2022/10/21 13:18:51;;;;;;;1.40;0.80;;;;;;;10.48;47.36;99523.70;102369;1291;61902;-24
2022/10/21 13:21:28;;;;;;;2.30;0.90;;;;;;;10.41;47.69;99524.09;102368;1299;74370;-24
2022/10/21 13:24:14;;;;;;;4.00;2.90;;;;;;;10.34;47.92;99520.58;102336;1302;75813;-24
2022/10/21 13:26:46;;;;;;;1.30;0.90;;;;;;;10.30;48.28;99515.09;102354;1299;74087;-24
2022/10/21 13:29:17;;;;;;;1.10;0.60;;;;;;;10.28;47.66;99517.33;102222;1294;61891;-24
2022/10/21 13:31:45;;;;;;;1.50;1.00;;;;;;;10.20;47.72;99511.60;102357;1300;62342;-24
2022/10/21 13:34:27;;;;;;;1.70;0.70;;;;;;;10.10;48.01;99513.96;102409;1299;75096;-24
2022/10/21 13:36:58;;;;;;;2.00;1.00;;;;;;;9.92;48.45;99517.45;102376;1299;75786;-24
2022/10/21 13:39:32;;;;;;;1.90;1.00;;;;;;;9.78;47.99;99519.52;102278;1299;74182;-24
2022/10/21 13:42:01;;;;;;;2.10;1.00;;;;;;;9.66;48.70;99530.38;102235;1300;61617;-24
2022/10/21 13:44:37;;;;;;;2.30;0.80;;;;;;;9.59;49.79;99527.20;102100;1299;61492;-24
2022/10/21 13:47:27;;;;;;;2.10;1.30;;;;;;;9.51;49.96;99519.13;102199;1299;74433;-24
2022/10/21 13:49:56;;;;;;;3.00;1.20;;;;;;;9.43;50.76;99517.62;102338;1302;75792;-24
2022/10/21 13:52:27;;;;;;;4.00;1.10;;;;;;;9.39;50.63;99511.08;102213;1302;74392;-24
2022/10/21 13:54:58;;;;;;;2.10;1.10;;;;;;;9.27;49.86;99505.54;102228;1302;61968;-24
2022/10/21 13:57:29;;;;;;;1.50;0.90;;;;;;;9.20;50.94;99499.06;102191;1301;61744;-24
2022/10/21 14:00:17;;;;;;;2.10;1.20;;;;;;;9.20;51.35;99490.75;102209;1294;75438;-24
2022/10/21 14:02:49;;;;;;;2.60;1.00;;;;;;;9.25;51.23;99482.23;102360;1294;74910;-24
2022/10/21 14:05:32;;;;;;;1.20;0.60;;;;;;;9.33;51.73;99486.73;102225;1301;72889;-24
2022/10/21 14:08:00;;;;;;;1.10;0.70;;;;;;;9.39;50.27;99489.27;102345;1294;61749;-24
2022/10/21 14:10:28;;;;;;;3.50;0.70;;;;;;;9.36;50.82;99491.52;102434;1299;61581;-24
2022/10/21 14:12:57;;;;;;;2.60;1.00;;;;;;;9.30;51.14;99478.09;102164;1294;75559;-24
2022/10/21 14:15:32;;;;;;;0.80;0.60;;;;;;;9.22;51.82;99480.69;102087;1301;75743;-24
2022/10/21 14:17:59;;;;;;;1.30;1.00;;;;;;;9.11;51.55;99483.15;102033;1301;74304;-25
2022/10/21 14:20:33;;;;;;;1.30;1.00;;;;;;;8.98;51.89;99480.97;102285;1299;62128;-25
2022/10/21 14:23:02;;;;;;;6.40;0.90;;;;;;;8.83;52.42;99476.94;102057;1299;60998;-25
2022/10/21 14:25:30;;;;;;;1.50;1.00;;;;;;;8.69;53.19;99472.31;102024;1294;74538;-24
2022/10/21 14:27:58;;;;;;;3.90;1.50;;;;;;;8.54;53.20;99471.39;102333;1299;75782;-24